< < Back
Terminal Aerodrome Forecast


Current Version              Previous Versions:   1  2  3  4  5  6  7  8  9  

Terminal Aerodrome Forecast

357
FTUS42 KILM 272100 AAA
TAFILM
TAF AMD
KILM 272101Z 2721/2818 32013G25KT P6SM SCT040 BKN060
     FM272300 33009KT P6SM SKC
     FM281400 34010G18KT P6SM SKC=



Latest METAR

910
SAUS70 KWBC 272100 RRG
MTRILM
METAR KILM 272053Z 33017G26KT 10SM -RA SCT041 BKN060 09/04 A3006 RMK AO2
PK WND 32026/2045 RAB50 SLP180 P0000 60000 T00940044
53022


USA.gov is the U.S. government's official web portal to all federal, state and local government web resources and services.